Monday, November 20, 2017, 3:20 AM CST
Back to Local

KMDW, Chicago Midway Airport

Location: Chicago, IL, United States Lat: 41.783
Local Time: 3:20 AM CST ( 9:20 GMT) Lon: -87.75
Time Zone: US/Central Elev: 620 ft

Show me the last for .
Show Coded

Time T Td Feel RH Dir Speed Gust Alt SLP Vis Weather Sky Remarks
2017-11-20 01:53 32 23 24 68 220° 9 - 30.02 30.05 10 FEW250 None
2017-11-20 00:53 32 23 23 68 230° 12 - 30.04 30.07 10 FEW250 None
2017-11-19 23:53 32 22 24 65 220° 10 - 30.06 30.09 10 FEW250 6-hr Min Temp (12am): 30.0°F
6-hr Max Temp (12am): 33.1°F
24-hr Min Temp (12am): 30.0°F
24-hr Max Temp (12am): 37.9°F
2017-11-19 22:53 31 21 23 66 230° 8 - 30.07 30.10 10 SCT250 None
2017-11-19 21:53 31 21 23 66 230° 8 - 30.08 30.11 10 SCT250 None
2017-11-19 20:53 30 21 21 68 240° 10 - 30.08 30.11 10 FEW250 None
2017-11-19 19:53 31 21 23 66 250° 9 - 30.08 30.12 10 CLR None
2017-11-19 18:53 31 21 23 66 240° 9 - 30.08 30.11 10 CLR None
2017-11-19 17:53 33 19 25 55 240° 9 - 30.07 30.11 10 CLR 6-hr Min Temp (6pm): 33.1°F
6-hr Max Temp (6pm): 36.0°F
2017-11-19 16:53 33 17 25 51 290° 10 - 30.06 30.09 10 SCT140 None
2017-11-19 15:53 35 17 27 47 280° 10 - 30.06 30.09 10 BKN140 None
2017-11-19 14:53 35 17 24 47 290° 13 18 30.05 30.07 10 FEW029 BKN150 BKN250 None
2017-11-19 13:53 35 18 24 49 270° 14 21 30.04 30.07 10 FEW029 FEW160 SCT250 None
2017-11-19 12:53 35 20 26 53 280° 15 - 30.04 30.07 10 FEW029 SCT250 None
2017-11-19 11:53 33 20 23 58 280° 16 - 30.05 30.08 10 FEW029 FEW250 6-hr Min Temp (12pm): 30.0°F
6-hr Max Temp (12pm): 34.0°F
2017-11-19 10:53 33 21 21 60 270° 16 21 30.05 30.08 10 SCT027 None
2017-11-19 09:53 33 20 24 58 300° 12 - 30.04 30.07 10 SCT029 None
2017-11-19 08:53 31 20 18 63 300° 15 22 30.03 30.05 10 SCT029 None
2017-11-19 07:53 30 19 20 63 310° 14 - 30.01 30.04 10 SCT029 None
2017-11-19 07:35 30 20 21 65 300° 12 - 30.01 - 10 SCT029 None
2017-11-19 06:53 31 21 18 66 290° 14 23 29.99 30.01 10 BKN029 BKN250 None
2017-11-19 06:27 32 22 22 65 300° 14 - 29.98 - 10 OVC029 None
2017-11-19 05:53 31 21 21 66 310° 14 - 29.97 29.99 10 BKN030 Pressure rising rapidly
24-hr Precip Total (6am): 0.57"
6-hr Min Temp (6am): 30.9°F
6-hr Max Temp (6am): 37.9°F
2017-11-19 04:53 34 23 25 63 300° 14 - 29.95 29.97 10 OVC030 None
2017-11-19 03:53 34 24 25 66 330° 12 - 29.92 29.95 10 OVC031 None

Support USWX by starting your Amazon purchase here.